createdAt,value
2023-03-11T00:04:44.301Z,7.20
2023-03-11T00:09:46.878Z,6.70
2023-03-11T00:14:49.304Z,6.70
2023-03-11T00:19:51.721Z,6.70
2023-03-11T00:24:54.097Z,6.70
2023-03-11T00:29:56.492Z,6.70
2023-03-11T00:34:58.889Z,6.80
2023-03-11T00:40:01.256Z,6.70
2023-03-11T00:45:03.965Z,6.70
2023-03-11T00:50:08.190Z,6.70
2023-03-11T00:55:13.331Z,6.60
2023-03-11T01:00:18.539Z,6.60
2023-03-11T01:05:24.143Z,6.60
2023-03-11T01:10:27.649Z,6.70
2023-03-11T01:15:33.717Z,6.70
2023-03-11T01:20:38.115Z,6.80
2023-03-11T01:25:40.704Z,6.70
2023-03-11T01:30:43.655Z,6.70
2023-03-11T01:35:47.092Z,6.80
2023-03-11T01:40:51.439Z,6.80
2023-03-11T01:45:54.566Z,6.90
2023-03-11T01:51:00.790Z,7.10
2023-03-11T01:56:05.463Z,7.00
2023-03-11T02:01:08.143Z,7.00
2023-03-11T02:06:15.984Z,7.10
2023-03-11T02:11:24.935Z,7.00
2023-03-11T02:16:27.953Z,7.00
2023-03-11T02:21:32.983Z,7.00
2023-03-11T02:26:44.423Z,6.90
2023-03-11T02:31:48.555Z,6.90
2023-03-11T02:36:53.033Z,6.90
2023-03-11T02:41:57.066Z,6.80
2023-03-11T02:47:00.746Z,6.80
2023-03-11T02:52:04.538Z,6.70
2023-03-11T02:57:07.017Z,6.60
2023-03-11T03:02:09.606Z,6.60
2023-03-11T03:07:14.362Z,6.50
2023-03-11T03:12:16.804Z,6.40
2023-03-11T03:17:19.573Z,6.30
2023-03-11T03:22:25.747Z,6.30
2023-03-11T03:27:29.308Z,6.20
2023-03-11T03:32:31.903Z,6.10
2023-03-11T03:37:36.108Z,6.00
2023-03-11T03:42:38.918Z,6.00
2023-03-11T03:47:41.705Z,6.00
2023-03-11T03:52:44.278Z,5.80
2023-03-11T03:57:47.157Z,5.80
2023-03-11T04:02:50.664Z,5.70
2023-03-11T04:08:01.166Z,5.70
2023-03-11T04:13:03.915Z,5.70
2023-03-11T04:18:07.099Z,5.50
2023-03-11T04:23:09.847Z,5.20
2023-03-11T04:28:12.400Z,4.90
2023-03-11T04:33:14.933Z,4.60
2023-03-11T04:38:17.553Z,4.30
2023-03-11T04:43:20.148Z,4.10
2023-03-11T04:48:22.709Z,3.90
2023-03-11T04:53:25.182Z,3.90
2023-03-11T04:58:27.689Z,3.90
2023-03-11T05:03:30.753Z,3.60
2023-03-11T05:08:33.423Z,3.60
2023-03-11T05:13:35.964Z,3.20
2023-03-11T05:18:38.574Z,3.10
2023-03-11T05:23:41.694Z,3.10
2023-03-11T05:28:44.349Z,2.90
2023-03-11T05:33:47.750Z,2.90
2023-03-11T05:38:53.231Z,2.70
2023-03-11T05:43:56.127Z,2.60
2023-03-11T05:49:01.892Z,3.00
2023-03-11T05:54:04.654Z,2.30
2023-03-11T05:59:16.494Z,2.20
2023-03-11T06:04:21.774Z,2.20
2023-03-11T06:09:24.693Z,2.10
2023-03-11T06:14:31.674Z,2.10
2023-03-11T06:19:35.861Z,2.00
2023-03-11T06:24:38.465Z,2.00
2023-03-11T06:29:41.580Z,2.00
2023-03-11T06:34:45.202Z,1.90
2023-03-11T06:39:47.717Z,1.80
2023-03-11T06:44:55.785Z,1.80
2023-03-11T06:49:58.398Z,1.70
2023-03-11T06:55:04.035Z,1.70
2023-03-11T07:00:12.277Z,1.70
2023-03-11T07:05:17.715Z,1.60
2023-03-11T07:10:20.321Z,1.60
2023-03-11T07:15:22.758Z,1.60
2023-03-11T07:20:25.323Z,1.60
2023-03-11T07:25:27.717Z,1.60
2023-03-11T07:30:30.119Z,1.60
2023-03-11T07:35:32.602Z,1.90
2023-03-11T07:40:35.301Z,1.70
2023-03-11T07:45:37.769Z,1.70
2023-03-11T07:50:40.130Z,1.80
2023-03-11T07:55:42.693Z,1.80
2023-03-11T08:00:45.033Z,1.70
2023-03-11T08:05:47.460Z,1.70
2023-03-11T08:10:49.809Z,1.80
2023-03-11T08:15:53.252Z,1.80
2023-03-11T08:20:55.631Z,1.80
2023-03-11T08:25:58.048Z,1.80
2023-03-11T08:31:00.777Z,1.80
2023-03-11T08:36:03.334Z,1.80
2023-03-11T08:41:06.377Z,1.70
2023-03-11T08:46:08.915Z,1.80
2023-03-11T08:51:13.222Z,1.70
2023-03-11T08:56:15.715Z,1.80
2023-03-11T09:01:20.300Z,1.80
2023-03-11T09:06:24.478Z,1.90
2023-03-11T09:11:27.069Z,1.90
2023-03-11T09:16:29.444Z,1.90
2023-03-11T09:21:31.987Z,2.00
2023-03-11T09:26:34.438Z,2.20
2023-03-11T09:31:38.692Z,2.30
2023-03-11T09:36:42.359Z,2.40
2023-03-11T09:41:59.242Z,2.40
2023-03-11T09:47:29.348Z,2.40
2023-03-11T09:52:51.896Z,2.50
2023-03-11T09:58:00.527Z,2.60
2023-03-11T10:03:06.616Z,2.60
2023-03-11T10:08:24.581Z,2.80
2023-03-11T10:13:39.019Z,2.70
2023-03-11T10:19:06.629Z,2.80
2023-03-11T10:24:14.502Z,3.10
2023-03-11T10:29:32.515Z,2.70
2023-03-11T10:34:41.088Z,2.40
2023-03-11T10:39:46.514Z,2.20
2023-03-11T10:44:50.093Z,2.80
2023-03-11T10:49:53.770Z,2.40
2023-03-11T10:55:02.861Z,2.50
2023-03-11T11:00:17.339Z,2.70
2023-03-11T11:05:22.437Z,2.80
2023-03-11T11:10:27.547Z,2.40
2023-03-11T11:15:33.123Z,2.40
2023-03-11T11:20:37.466Z,2.70
2023-03-11T11:25:43.651Z,2.80
2023-03-11T11:30:58.057Z,3.00
2023-03-11T11:36:03.636Z,2.70
2023-03-11T11:41:06.799Z,2.90
2023-03-11T11:46:38.583Z,2.90
2023-03-11T11:51:42.885Z,2.80
2023-03-11T11:56:45.844Z,2.40
2023-03-11T12:02:07.134Z,2.50
2023-03-11T12:07:25.089Z,2.20
2023-03-11T12:12:39.204Z,2.60
2023-03-11T12:17:44.275Z,2.70
2023-03-11T12:23:13.460Z,2.70
2023-03-11T12:28:23.246Z,2.60
2023-03-11T12:33:37.061Z,2.70
2023-03-11T12:38:40.824Z,2.70
2023-03-11T12:43:43.144Z,2.70
2023-03-11T12:48:49.727Z,2.80
2023-03-11T12:53:52.180Z,3.10
2023-03-11T12:59:13.281Z,4.00
2023-03-11T13:04:37.656Z,4.00
2023-03-11T13:09:40.590Z,3.90
2023-03-11T13:14:43.000Z,3.40
2023-03-11T13:19:51.414Z,3.50
2023-03-11T13:24:53.931Z,3.80
2023-03-11T13:30:19.969Z,3.40
2023-03-11T13:35:36.253Z,3.40
2023-03-11T13:40:40.605Z,3.30
2023-03-11T13:45:58.474Z,3.30
2023-03-11T13:51:17.887Z,3.30
2023-03-11T13:56:28.398Z,3.70
2023-03-11T14:01:30.882Z,3.80
2023-03-11T14:06:33.262Z,4.20
2023-03-11T14:11:35.657Z,4.20
2023-03-11T14:16:44.192Z,3.90
2023-03-11T14:21:55.309Z,3.90
2023-03-11T14:27:01.410Z,3.60
2023-03-11T14:32:33.375Z,3.40
2023-03-11T14:37:38.404Z,3.30
2023-03-11T14:42:41.528Z,3.30
2023-03-11T14:47:53.757Z,3.40
2023-03-11T14:53:14.595Z,3.30
2023-03-11T14:58:40.411Z,3.10
2023-03-11T15:04:06.289Z,3.00
2023-03-11T15:09:18.921Z,3.00
2023-03-11T15:14:35.406Z,2.80
2023-03-11T15:19:38.338Z,2.80
2023-03-11T15:24:40.849Z,2.90
2023-03-11T15:29:52.425Z,2.90
2023-03-11T15:35:12.829Z,2.90
2023-03-11T15:40:42.373Z,2.70
2023-03-11T15:45:48.961Z,2.40
2023-03-11T15:50:55.096Z,2.30
2023-03-11T15:56:07.370Z,2.40
2023-03-11T16:01:10.421Z,2.40
2023-03-11T16:06:12.724Z,2.90
2023-03-11T16:11:15.849Z,2.30
2023-03-11T16:16:18.894Z,2.20
2023-03-11T16:21:24.564Z,2.20
2023-03-11T16:26:26.956Z,2.00
2023-03-11T16:31:32.100Z,1.90
2023-03-11T16:36:34.493Z,1.70
2023-03-11T16:41:44.684Z,1.70
2023-03-11T16:46:47.054Z,1.50
2023-03-11T16:51:49.414Z,1.40
2023-03-11T16:56:51.734Z,1.40
2023-03-11T17:01:54.117Z,1.40
2023-03-11T17:06:56.489Z,1.20
2023-03-11T17:11:58.795Z,1.20
2023-03-11T17:17:01.274Z,1.10
2023-03-11T17:22:04.343Z,1.10
2023-03-11T17:27:07.120Z,1.10
2023-03-11T17:32:09.583Z,1.00
2023-03-11T17:37:12.128Z,1.10
2023-03-11T17:42:14.478Z,1.10
2023-03-11T17:47:17.901Z,1.10
2023-03-11T17:52:20.233Z,1.10
2023-03-11T17:57:23.021Z,1.10
2023-03-11T18:02:25.414Z,1.10
2023-03-11T18:07:27.793Z,1.10
2023-03-11T18:12:30.171Z,1.10
2023-03-11T18:17:34.676Z,1.00
2023-03-11T18:22:38.571Z,1.00
2023-03-11T18:27:42.407Z,0.90
2023-03-11T18:32:45.066Z,0.80
2023-03-11T18:37:47.517Z,0.80
2023-03-11T18:42:52.871Z,0.70
2023-03-11T18:47:55.436Z,0.90
2023-03-11T18:52:57.825Z,0.70
2023-03-11T18:58:00.112Z,0.50
2023-03-11T19:03:02.450Z,0.50
2023-03-11T19:08:05.344Z,0.50
2023-03-11T19:13:07.726Z,0.50
2023-03-11T19:18:10.088Z,0.40
2023-03-11T19:23:12.472Z,0.40
2023-03-11T19:28:14.815Z,0.70
2023-03-11T19:33:17.210Z,0.40
2023-03-11T19:38:21.184Z,0.50
2023-03-11T19:43:23.822Z,0.50
2023-03-11T19:48:26.188Z,0.50
2023-03-11T19:53:28.794Z,0.50
2023-03-11T19:58:31.920Z,0.50
2023-03-11T20:03:34.411Z,0.50
2023-03-11T20:08:37.818Z,0.50
2023-03-11T20:13:42.675Z,0.40
2023-03-11T20:18:46.101Z,0.40
2023-03-11T20:23:49.079Z,0.30
2023-03-11T20:28:56.076Z,0.30
2023-03-11T20:33:59.158Z,0.20
2023-03-11T20:39:01.846Z,0.20
2023-03-11T20:44:06.555Z,0.20
2023-03-11T20:49:09.539Z,0.10
2023-03-11T20:54:12.150Z,0.10
2023-03-11T20:59:14.936Z,0.10
2023-03-11T21:04:17.583Z,0.10
2023-03-11T21:09:20.272Z,0.00
2023-03-11T21:14:22.595Z,0.00
2023-03-11T21:19:24.921Z,0.00
2023-03-11T21:24:27.243Z,-0.10
2023-03-11T21:29:30.746Z,-0.10
2023-03-11T21:34:33.478Z,-0.10
2023-03-11T21:39:36.119Z,-0.10
2023-03-11T21:44:38.578Z,-0.20
2023-03-11T21:49:40.960Z,-0.20
2023-03-11T21:54:43.446Z,-0.20
2023-03-11T21:59:45.842Z,-0.20
2023-03-11T22:04:48.631Z,-0.20
2023-03-11T22:09:52.105Z,-0.30
2023-03-11T22:14:54.575Z,-0.30
2023-03-11T22:19:57.045Z,-0.30
2023-03-11T22:24:59.514Z,-0.30
2023-03-11T22:30:01.983Z,-0.40
2023-03-11T22:35:04.701Z,-0.40
2023-03-11T22:40:08.254Z,-0.40
2023-03-11T22:45:11.078Z,-0.40
2023-03-11T22:50:13.455Z,-0.40
2023-03-11T22:55:15.900Z,-0.50
2023-03-11T23:00:21.952Z,-0.50
2023-03-11T23:05:24.284Z,-0.50
2023-03-11T23:10:27.029Z,-0.60
2023-03-11T23:15:30.326Z,-0.60
2023-03-11T23:20:36.193Z,-0.60
2023-03-11T23:25:40.627Z,-0.60
2023-03-11T23:30:43.001Z,-0.60
2023-03-11T23:35:45.340Z,-0.70
2023-03-11T23:40:47.625Z,-0.60
2023-03-11T23:45:49.964Z,-0.70
2023-03-11T23:50:52.507Z,-0.70
2023-03-11T23:55:55.213Z,-0.70
